ADDS TAF Board (Experimental) INFO

IDs: Format: Expanded Condensed

Updated at: 0226 UTC 24 Nov 2014

KIAD - Washington/Dulles In, VA, US

Issued at 2331 UTC 23 Nov 2014
Time0217Z24/03Z24/04Z24/05Z24/06Z24/07Z24/08Z24/09Z24/10Z24/11Z24/12Z24/13Z24/14Z24/15Z
TypeOBSPRVLPRVLPRVLPRVLPRVLPRVLPRVLPRVLPRVLPRVLPRVLPRVLPRVL
VIS333222233>6>6>6>6>6
CIG1725259999333333535
CoverOVCOVCOVCOVCOVCOVCOVCOVCOVCOVCOVCOVCBKNBKN
FltCatMVFRMVFRMVFRIFRIFRIFRIFRLIFRLIFRLIFRLIFRLIFRVFRVFR
WX-DZ BRRARARARARARA-RA-RA----------
WDir140140140140140140140160160190190190190190
WSpd7881212121214141313131212
WGst------------------------2020
R01/19
XWnd-5-5-5-8-8-8-8-5-522222
XGst------------------------33
HWnd-5-6-6-9-9-9-9-13-13-13-13-13-12-12
HGst-------------------------20-20
R12/30
XWnd-3-4-4-6-6-6-6-11-11-13-13-13-12-12
XGst-------------------------20-20
HWnd677101010109922222
HGst------------------------44
Raw TAF
KIAD 232331Z 2400/2506 14008KT P6SM -RA OVC035
  FM240300 14008KT 3SM RA OVC025 WS020/16040KT
  FM240500 14012KT 2SM RA OVC009 WS020/16045KT
  FM240900 16014KT 3SM -RA OVC003 WS020/20040KT
  FM241100 19013KT P6SM OVC003
  FM241400 19012G20KT P6SM BKN035
  FM241700 20016G26KT P6SM SCT060
  FM250000 23009KT P6SM SCT250


Raw METAR
KIAD 240217Z 14007KT 3SM -DZ BR FEW008 BKN017 OVC025 11/09 A2994 RMK AO2 DZB16 P0000
KIAD 240152Z 14007KT 10SM SCT017 BKN025 OVC030 11/08 A2995 RMK AO2 RAB0059E45 SLP143 P0001 T01060083

TAF Board Legend

Hazard VFR MVFR IFR LIFR
Visibility (sm) >5 3≤X≤5 1≤X<3 <1
Ceiling (100 ft) >30 10≤X≤30 5≤X<10 <5
Wind Speed (kt) <10 10≤X<20 20≤X<30 ≥30
Wind Gust (kt) <15 15≤X<25 25≤X<35 ≥35
Weather No Wx Reported VCTS,-TS,-FZRA TS,FZRA +TS,+FZRA


Page loaded:  02:26 UTC  |   06:26 PM Pacific  |   07:26 PM Mountain  |   08:26 PM Central  |   09:26 PM Eastern

 

ADVISORIES

FORECASTS

FORECASTS

OBSERVATIONS

USER TOOLS

ABOUT US